Time;durP1;ratioP1;P1;durP2;ratioP2;P2;SDS_P1;SDS_P2;PMS_P1;PMS_P2;Temp;Humidity;BMP_temperature;BMP_pressure;BME280_temperature;BME280_humidity;BME280_pressure;Samples;Min_cycle;Max_cycle;Signal;HPM_P1;HPM_P2
2024/03/18 00:00:16;;;;;;;9.70;7.68;;;;;;;11.78;63.67;99939.16;6050185;23;20073;-89
2024/03/18 00:02:43;;;;;;;12.02;7.15;;;;;;;11.78;63.68;99935.69;6048248;23;20026;-89
2024/03/18 00:05:14;;;;;;;9.68;7.43;;;;;;;11.74;62.91;99924.50;6047224;23;20027;-90
2024/03/18 00:07:42;;;;;;;13.68;7.63;;;;;;;11.76;63.72;99925.22;6071439;23;20025;-89
2024/03/18 00:10:12;;;;;;;10.20;7.07;;;;;;;11.74;64.00;99919.22;6047952;23;20023;-89
2024/03/18 00:12:42;;;;;;;10.73;7.53;;;;;;;11.70;63.17;99922.97;6048205;23;20022;-90
2024/03/18 00:15:10;;;;;;;11.13;7.18;;;;;;;11.71;63.93;99924.66;6047784;23;20384;-90
2024/03/18 00:17:36;;;;;;;8.25;6.95;;;;;;;11.70;64.04;99922.97;6071530;23;20073;-89
2024/03/18 00:20:10;;;;;;;13.05;8.05;;;;;;;11.68;64.05;99919.56;6048041;23;20468;-90
2024/03/18 18:53:08;;;;;;;37.70;24.92;;;;;;;13.29;75.71;99944.94;6098751;23;20361;-88
2024/03/18 18:55:33;;;;;;;38.63;26.42;;;;;;;13.27;75.46;99944.19;6048244;23;20026;-88
2024/03/18 18:57:59;;;;;;;41.22;26.95;;;;;;;13.23;75.41;99943.53;6048157;23;20022;-88
2024/03/18 19:00:39;;;;;;;42.33;28.75;;;;;;;13.17;75.46;99951.88;6071942;23;20065;-88
2024/03/18 19:03:04;;;;;;;38.35;25.77;;;;;;;13.18;75.45;99944.75;6071817;23;20322;-88
2024/03/18 19:05:31;;;;;;;42.15;27.38;;;;;;;13.15;75.38;99951.09;6047862;23;20085;-88
2024/03/18 19:08:20;;;;;;;43.85;30.00;;;;;;;13.05;75.26;99950.88;6071688;23;20065;-89
2024/03/18 19:10:49;;;;;;;41.60;27.25;;;;;;;13.05;75.44;99950.88;6047966;23;20033;-88
2024/03/18 19:13:23;;;;;;;43.85;29.33;;;;;;;12.99;75.51;99953.88;6047762;23;20026;-88
2024/03/18 19:15:53;;;;;;;40.88;28.17;;;;;;;12.98;75.54;99954.84;6071747;23;20094;-88
2024/03/18 19:18:48;;;;;;;42.13;27.77;;;;;;;12.89;75.45;99959.75;6047938;23;20022;-88
2024/03/18 19:21:13;;;;;;;43.70;27.65;;;;;;;12.88;75.44;99950.16;6071805;23;20025;-88
2024/03/18 19:24:04;;;;;;;39.92;26.42;;;;;;;12.79;75.35;99953.38;6071459;23;20023;-88
2024/03/18 19:26:30;;;;;;;40.85;27.70;;;;;;;12.78;75.22;99949.03;6071929;23;20019;-88
2024/03/18 19:28:56;;;;;;;40.65;26.80;;;;;;;12.72;74.81;99957.34;6071573;23;20045;-88
2024/03/18 19:31:33;;;;;;;41.05;25.38;;;;;;;12.62;75.39;99959.72;6047921;23;20089;-88
2024/03/18 19:34:01;;;;;;;41.70;25.55;;;;;;;12.61;75.36;99964.16;6072110;23;20078;-90
2024/03/18 19:36:28;;;;;;;39.78;25.98;;;;;;;12.57;75.29;99962.66;6048244;23;20030;-89
2024/03/18 19:39:13;;;;;;;42.88;27.00;;;;;;;12.48;75.42;99973.75;6048023;23;20033;-89
2024/03/18 19:41:39;;;;;;;45.85;27.13;;;;;;;12.46;75.36;99963.31;6071623;23;20026;-89
2024/03/18 19:44:05;;;;;;;40.80;26.58;;;;;;;12.41;75.51;99967.19;6047974;23;20026;-89
2024/03/18 19:47:22;;;;;;;47.20;27.45;;;;;;;12.30;75.80;99968.66;6047921;23;20465;-90
2024/03/18 19:49:47;;;;;;;45.28;26.67;;;;;;;12.29;75.68;99974.88;6048030;23;20465;-90
2024/03/18 19:52:24;;;;;;;47.38;28.00;;;;;;;12.21;76.21;99979.78;6047599;23;20057;-89
2024/03/18 19:54:50;;;;;;;43.22;27.17;;;;;;;12.20;76.04;99975.44;6047981;23;20022;-89
2024/03/18 20:00:38;;;;;;;44.75;25.67;;;;;;;12.10;76.23;99980.44;6071638;23;20022;-89
2024/03/18 20:03:08;;;;;;;41.88;26.45;;;;;;;12.06;76.24;99974.50;6047667;23;20082;-89
2024/03/18 20:06:00;;;;;;;46.95;28.63;;;;;;;11.99;76.88;99983.69;6047928;23;20030;-89
2024/03/18 20:08:26;;;;;;;53.58;29.65;;;;;;;12.00;76.47;99980.09;6047735;23;20023;-89
2024/03/18 20:10:52;;;;;;;54.83;30.33;;;;;;;11.98;76.44;99976.72;6071702;23;20023;-89
2024/03/18 20:13:27;;;;;;;51.85;29.17;;;;;;;11.91;76.93;99978.00;6071679;23;20334;-89
2024/03/18 20:15:52;;;;;;;48.08;29.35;;;;;;;11.92;76.69;99972.63;6047547;23;20030;-89
2024/03/18 20:18:18;;;;;;;45.13;28.85;;;;;;;11.91;76.94;99983.28;6047591;23;20408;-89
2024/03/18 20:24:09;;;;;;;45.67;26.77;;;;;;;11.89;77.24;99974.63;6071487;23;20018;-89
2024/03/18 20:26:35;;;;;;;45.30;27.70;;;;;;;11.85;77.41;99974.78;6071209;23;20026;-89
2024/03/18 20:32:48;;;;;;;42.38;24.27;;;;;;;11.86;77.23;99975.66;6096857;23;20070;-89
2024/03/18 20:35:32;;;;;;;45.15;25.58;;;;;;;11.80;77.01;99974.22;6047472;23;20452;-89
2024/03/18 20:37:58;;;;;;;42.85;25.02;;;;;;;11.82;76.62;99972.31;6047491;23;20088;-89
2024/03/18 20:40:45;;;;;;;42.15;25.40;;;;;;;11.78;76.51;99977.88;6047560;23;20349;-89
2024/03/18 20:43:11;;;;;;;38.03;23.23;;;;;;;11.80;76.25;99976.84;6047409;23;20022;-89
2024/03/18 20:45:36;;;;;;;42.00;23.95;;;;;;;11.77;75.94;99982.31;6047446;23;20061;-89
2024/03/18 20:48:26;;;;;;;39.55;24.27;;;;;;;11.70;75.79;99988.91;6047345;23;20326;-89
2024/03/18 20:50:53;;;;;;;37.42;24.65;;;;;;;11.70;75.69;99989.72;6071399;23;20457;-89
2024/03/18 20:53:24;;;;;;;42.17;24.70;;;;;;;11.65;75.66;99985.66;6047521;23;20022;-89
2024/03/18 20:55:49;;;;;;;40.05;24.52;;;;;;;11.64;75.86;99989.22;6047479;23;20345;-89
2024/03/18 20:58:15;;;;;;;41.88;25.73;;;;;;;11.59;76.05;99986.88;6047359;23;20050;-89
2024/03/18 21:00:56;;;;;;;37.50;23.50;;;;;;;11.52;76.37;99991.66;6047295;23;20023;-89
2024/03/18 21:03:22;;;;;;;37.03;24.65;;;;;;;11.54;76.27;99988.91;6071099;23;20022;-89
2024/03/18 21:05:48;;;;;;;42.55;25.85;;;;;;;11.51;76.49;99989.94;6071282;23;20073;-89
2024/03/18 21:08:28;;;;;;;46.30;27.50;;;;;;;11.46;77.08;99984.09;6070963;23;20520;-89
2024/03/18 21:10:53;;;;;;;43.03;27.02;;;;;;;11.49;77.11;99993.59;6071338;23;20030;-89
2024/03/18 21:13:20;;;;;;;44.80;28.35;;;;;;;11.49;77.48;99989.19;6047410;23;20070;-89
2024/03/18 21:15:46;;;;;;;44.67;28.88;;;;;;;11.49;78.10;99989.19;6071263;23;20022;-89
2024/03/18 21:18:12;;;;;;;47.13;30.63;;;;;;;11.51;78.05;99987.28;6047224;23;20327;-89
2024/03/18 21:20:40;;;;;;;44.80;28.88;;;;;;;11.51;78.12;99979.38;6047081;23;20034;-89
2024/03/18 21:23:06;;;;;;;48.90;28.40;;;;;;;11.55;77.96;99990.63;6071042;23;20453;-89
2024/03/18 21:25:32;;;;;;;42.38;26.67;;;;;;;11.55;77.95;99986.19;6047166;23;20029;-89
2024/03/18 21:28:01;;;;;;;42.63;27.33;;;;;;;11.56;78.06;99982.59;6070707;23;20022;-89
2024/03/18 21:30:26;;;;;;;48.55;28.75;;;;;;;11.60;77.69;99994.66;6047099;23;20034;-89
2024/03/18 21:32:52;;;;;;;43.85;26.15;;;;;;;11.59;77.56;99985.06;6071061;23;20093;-89
2024/03/18 21:35:36;;;;;;;40.08;26.70;;;;;;;11.55;77.15;99983.53;6047167;23;20113;-90
2024/03/18 21:38:02;;;;;;;43.28;26.08;;;;;;;11.59;76.81;99985.06;6046966;23;20033;-89
2024/03/18 21:40:31;;;;;;;45.50;28.17;;;;;;;11.56;77.23;99982.59;6047172;23;20030;-89
2024/03/18 21:42:56;;;;;;;40.70;26.40;;;;;;;11.56;77.09;99976.50;6047253;23;20026;-89
2024/03/18 21:48:30;;;;;;;40.63;26.50;;;;;;;11.55;77.29;99988.81;6070985;23;20062;-89
2024/03/18 21:51:06;;;;;;;44.25;27.02;;;;;;;11.51;77.43;99989.09;6046909;23;20445;-89
2024/03/18 21:53:32;;;;;;;39.03;25.75;;;;;;;11.53;77.38;99985.44;6048187;23;20030;-89
2024/03/18 21:55:58;;;;;;;42.80;26.40;;;;;;;11.52;77.26;99989.03;6048567;23;20030;-89
2024/03/18 21:58:39;;;;;;;41.28;26.33;;;;;;;11.47;77.12;99993.69;6048898;23;20026;-89
2024/03/18 22:01:05;;;;;;;41.17;26.00;;;;;;;11.52;76.71;99990.78;6048845;23;20026;-89
2024/03/18 22:03:30;;;;;;;34.45;22.83;;;;;;;11.51;76.64;99983.84;6048730;23;20353;-89
2024/03/18 22:09:10;;;;;;;43.83;26.75;;;;;;;11.46;77.45;99994.63;6072744;23;20022;-89
2024/03/18 22:11:39;;;;;;;35.58;23.60;;;;;;;11.42;76.95;99999.22;6048843;23;20491;-89
2024/03/18 22:14:32;;;;;;;43.83;26.60;;;;;;;11.36;77.12;99985.56;6072591;23;20029;-89
2024/03/18 22:16:58;;;;;;;39.53;24.80;;;;;;;11.38;76.98;99986.31;6048717;23;20030;-89
2024/03/18 22:19:51;;;;;;;40.97;23.85;;;;;;;11.30;77.21;99987.59;6048623;23;20022;-89
2024/03/18 22:22:16;;;;;;;39.80;25.95;;;;;;;11.34;77.43;99983.00;6072561;23;20022;-89
2024/03/18 22:24:46;;;;;;;41.50;25.20;;;;;;;11.30;77.81;99979.69;6048624;23;20073;-89
2024/03/18 22:27:12;;;;;;;46.55;28.17;;;;;;;11.33;77.95;99983.94;6048491;23;20018;-89
2024/03/18 22:29:38;;;;;;;49.53;29.63;;;;;;;11.34;78.22;99980.38;6048598;23;20101;-89
2024/03/18 22:32:11;;;;;;;46.67;29.25;;;;;;;11.33;78.29;99982.13;6048539;23;20049;-89
2024/03/18 22:34:37;;;;;;;;;;;;;;;11.36;78.05;99978.47;6072862;23;20030;-89
2024/03/18 22:37:02;;;;;;;42.63;25.85;;;;;;;11.43;77.99;99986.88;6048473;23;19917;-89
2024/03/18 22:39:35;;;;;;;42.67;26.48;;;;;;;11.39;77.42;99983.59;6048309;23;20028;-89
2024/03/18 22:42:01;;;;;;;;;;;;;;;11.42;77.21;99979.91;6049021;23;20022;-89
2024/03/18 22:44:27;;;;;;;43.63;25.67;;;;;;;11.46;77.67;99986.72;6072367;23;20347;-89
2024/03/18 22:47:39;;;;;;;44.85;25.58;;;;;;;11.41;77.70;99983.50;6048375;23;20029;-89
2024/03/18 22:50:06;;;;;;;44.53;25.55;;;;;;;11.47;78.17;99977.88;6048290;23;20054;-89
2024/03/18 22:52:36;;;;;;;46.88;27.30;;;;;;;11.46;78.00;99987.56;6071983;23;20034;-89
2024/03/18 22:55:15;;;;;;;45.83;27.27;;;;;;;11.45;78.02;99985.84;6048205;23;20018;-89
2024/03/18 22:57:41;;;;;;;44.15;26.40;;;;;;;11.52;78.44;99975.84;6072047;23;20019;-89
2024/03/18 23:00:17;;;;;;;46.28;26.58;;;;;;;11.53;78.15;99981.94;6048161;23;20026;-89
2024/03/18 23:02:45;;;;;;;48.67;28.98;;;;;;;11.54;78.13;99981.00;6048237;23;20022;-89
2024/03/18 23:05:23;;;;;;;45.35;28.55;;;;;;;11.52;78.06;99986.38;6048096;23;20480;-89
2024/03/18 23:07:48;;;;;;;45.95;27.50;;;;;;;11.57;78.54;99984.31;6048371;23;20345;-89
2024/03/18 23:10:14;;;;;;;48.45;28.13;;;;;;;11.58;78.19;99980.75;6072268;23;20098;-89
2024/03/18 23:12:59;;;;;;;43.65;27.10;;;;;;;11.56;78.05;99987.88;6048235;23;20080;-89
2024/03/18 23:15:25;;;;;;;42.97;25.63;;;;;;;11.62;77.99;99988.47;6048221;23;20029;-89
2024/03/18 23:17:50;;;;;;;44.03;26.48;;;;;;;11.63;77.83;99993.69;6048125;23;20093;-89
2024/03/18 23:20:21;;;;;;;42.42;27.48;;;;;;;11.60;77.80;99986.75;6048157;23;20461;-89
2024/03/18 23:22:47;;;;;;;42.47;26.75;;;;;;;11.64;77.62;99983.97;6048156;23;20033;-89
2024/03/18 23:25:12;;;;;;;40.78;25.95;;;;;;;11.63;77.15;99987.53;6047928;23;20458;-89
2024/03/18 23:27:38;;;;;;;45.40;26.77;;;;;;;11.61;76.84;99982.34;6048138;23;20023;-89
2024/03/18 23:30:05;;;;;;;42.47;26.17;;;;;;;11.59;76.95;99978.97;6048035;23;20101;-89
2024/03/18 23:32:32;;;;;;;40.65;25.05;;;;;;;11.56;76.65;99982.59;6048056;23;20026;-89
2024/03/18 23:35:21;;;;;;;43.45;26.77;;;;;;;11.49;76.80;99976.00;6048145;23;20026;-89
2024/03/18 23:37:47;;;;;;;42.28;25.13;;;;;;;11.50;77.04;99977.69;6047980;23;20082;-89
2024/03/18 23:40:13;;;;;;;46.42;27.20;;;;;;;11.48;77.06;99976.94;6048119;23;20402;-89
2024/03/18 23:42:55;;;;;;;48.63;29.30;;;;;;;11.40;77.06;99980.00;6047986;23;20037;-89
2024/03/18 23:45:20;;;;;;;48.67;27.38;;;;;;;11.42;77.16;99980.78;6047881;23;20029;-89
2024/03/18 23:47:49;;;;;;;46.67;28.33;;;;;;;11.38;77.00;99984.53;6047836;23;20476;-89
2024/03/18 23:50:15;;;;;;;45.25;27.52;;;;;;;11.39;77.18;99980.09;6047661;23;20022;-89
2024/03/18 23:52:41;;;;;;;46.70;27.38;;;;;;;11.36;77.12;99977.66;6047570;23;20029;-89
2024/03/18 23:55:20;;;;;;;46.80;27.48;;;;;;;11.30;77.13;99982.34;6071783;23;20488;-89
2024/03/18 23:57:47;;;;;;;51.35;28.35;;;;;;;11.30;77.15;99977.06;6047910;23;20019;-89
